Аэропорт
Шымкент (UAII)

 UAII / CIT
ЗЦ Центральная Азия
Шымкент (UAII)
Шымкент (UAII)
 42.36420, 69.47890  / 1385 ft

 UAII 161600Z 11002MPS 8000 NSC 08/M02 Q1011 R10/0///70 NOSIG RMK QFE723/0964
 UAII 160500Z 1606/1706 35003MPS 6000 SCT040 BKN100 TX14/1609Z TN02/1701Z TEMPO 1606/1613 03006MPS TEMPO 1613/1621 11005MPS 1500 FU BR SCT033CB OVC100 TEMPO 1621/1706 18005G10MPS 3000 -SHRA BR BKN030CB OVC100
показать схемы
Название сценария Тип сценария Flight Simulator 9 Flight Simulator X Prepar3D v2 Prepar3D v3 Prepar3D v4 xPlane
Recommended scenery for FS9 бесплатный
Recommended scenery for FSX бесплатный


2019 © VATRUS division (Privacy Policy)